createdAt,value
2022-10-08T00:00:36.585Z,9.1
2022-10-08T00:08:08.841Z,8.3
2022-10-08T00:15:41.110Z,7.9
2022-10-08T00:23:13.371Z,7.4
2022-10-08T00:30:45.632Z,9.9
2022-10-08T00:38:17.896Z,7.8
2022-10-08T00:45:50.216Z,9.4
2022-10-08T00:53:22.565Z,8.6
2022-10-08T01:00:54.882Z,7.2
2022-10-08T01:08:27.175Z,6.7
2022-10-08T01:15:59.461Z,7.9
2022-10-08T01:23:31.772Z,6.3
2022-10-08T01:31:04.039Z,8.0
2022-10-08T01:38:36.301Z,7.4
2022-10-08T01:46:08.665Z,7.7
2022-10-08T01:53:40.965Z,8.2
2022-10-08T02:01:13.280Z,7.3
2022-10-08T02:08:45.583Z,7.0
2022-10-08T02:16:17.971Z,6.7
2022-10-08T02:23:50.281Z,6.9
2022-10-08T02:31:22.616Z,6.2
2022-10-08T02:38:54.916Z,7.9
2022-10-08T02:46:27.177Z,6.8
2022-10-08T02:53:59.445Z,7.1
2022-10-08T03:01:31.852Z,7.4
2022-10-08T03:09:04.161Z,5.4
2022-10-08T03:16:36.521Z,7.0
2022-10-08T03:24:08.821Z,6.8
2022-10-08T03:31:41.098Z,6.9
2022-10-08T03:39:13.351Z,8.2
2022-10-08T03:46:45.618Z,7.0
2022-10-08T03:54:17.898Z,7.9
2022-10-08T04:01:50.218Z,7.8
2022-10-08T04:09:22.519Z,7.1
2022-10-08T04:16:54.783Z,7.7
2022-10-08T04:24:27.041Z,7.9
2022-10-08T04:32:16.658Z,6.4
2022-10-08T04:33:03.969Z,8.3
2022-10-08T04:33:51.233Z,11.4
2022-10-08T04:34:38.489Z,15.8
2022-10-08T04:35:25.824Z,15.0
2022-10-08T04:36:13.093Z,26.7
2022-10-08T04:37:00.360Z,13.6
2022-10-08T04:37:47.665Z,11.0
2022-10-08T04:45:19.937Z,14.9
2022-10-08T04:52:52.223Z,14.6
2022-10-08T05:00:24.513Z,10.7
2022-10-08T05:07:56.777Z,9.7
2022-10-08T05:15:29.039Z,10.1
2022-10-08T05:23:01.301Z,7.9
2022-10-08T05:30:33.572Z,9.3
2022-10-08T05:38:05.980Z,9.1
2022-10-08T05:45:38.263Z,7.5
2022-10-08T05:48:37.748Z,7.4
2022-10-08T05:49:25.068Z,7.6
2022-10-08T05:50:12.331Z,7.9
2022-10-08T05:50:59.606Z,7.0
2022-10-08T05:51:46.976Z,11.1
2022-10-08T05:52:34.228Z,7.0
2022-10-08T05:53:21.521Z,14.7
2022-10-08T05:54:08.773Z,7.1
2022-10-08T05:54:56.049Z,11.9
2022-10-08T05:55:43.788Z,8.9
2022-10-08T05:56:31.061Z,6.8
2022-10-08T05:57:18.316Z,8.1
2022-10-08T05:58:05.581Z,9.0
2022-10-08T05:58:52.891Z,8.3
2022-10-08T05:59:40.166Z,7.0
2022-10-08T06:00:27.428Z,9.0
2022-10-08T06:01:14.971Z,8.8
2022-10-08T06:02:02.283Z,7.4
2022-10-08T06:02:50.111Z,7.5
2022-10-08T06:03:37.906Z,6.2
2022-10-08T06:04:25.371Z,13.0
2022-10-08T06:05:12.670Z,7.3
2022-10-08T06:05:59.929Z,7.3
2022-10-08T06:06:47.361Z,8.4
2022-10-08T06:07:34.619Z,7.8
2022-10-08T06:08:21.934Z,8.1
2022-10-08T06:09:09.276Z,6.8
2022-10-08T06:09:56.553Z,8.0
2022-10-08T06:10:43.812Z,12.0
2022-10-08T06:11:31.219Z,9.1
2022-10-08T06:12:18.482Z,6.9
2022-10-08T06:13:05.749Z,10.6
2022-10-08T06:13:53.187Z,7.5
2022-10-08T06:14:40.459Z,6.8
2022-10-08T06:15:27.728Z,8.7
2022-10-08T06:16:15.182Z,9.1
2022-10-08T06:17:02.474Z,8.8
2022-10-08T06:17:49.742Z,9.5
2022-10-08T06:18:37.176Z,6.4
2022-10-08T06:19:24.448Z,9.7
2022-10-08T06:20:11.718Z,8.2
2022-10-08T06:20:59.141Z,7.4
2022-10-08T06:21:46.413Z,8.4
2022-10-08T06:22:33.788Z,7.3
2022-10-08T06:23:21.108Z,7.0
2022-10-08T06:24:08.393Z,9.9
2022-10-08T06:24:55.657Z,7.3
2022-10-08T06:25:43.090Z,8.7
2022-10-08T06:26:34.554Z,6.7
2022-10-08T06:27:22.814Z,7.2
2022-10-08T06:28:10.314Z,8.4
2022-10-08T06:28:57.626Z,7.1
2022-10-08T06:29:44.890Z,7.2
2022-10-08T06:30:32.330Z,9.6
2022-10-08T06:31:19.641Z,13.1
2022-10-08T06:32:06.948Z,7.0
2022-10-08T06:32:54.394Z,7.1
2022-10-08T06:33:41.660Z,6.8
2022-10-08T06:34:28.921Z,8.6
2022-10-08T06:35:16.347Z,8.8
2022-10-08T06:36:03.596Z,9.4
2022-10-08T06:36:50.852Z,8.3
2022-10-08T06:37:38.289Z,6.3
2022-10-08T06:38:25.545Z,7.1
2022-10-08T06:39:12.823Z,9.0
2022-10-08T06:40:00.262Z,28.7
2022-10-08T06:40:47.520Z,10.1
2022-10-08T06:41:34.899Z,11.5
2022-10-08T06:42:22.340Z,16.1
2022-10-08T06:43:09.624Z,24.2
2022-10-08T06:43:56.904Z,15.7
2022-10-08T06:44:44.331Z,14.3
2022-10-08T06:45:31.586Z,14.5
2022-10-08T06:46:18.889Z,15.0
2022-10-08T06:47:06.308Z,13.4
2022-10-08T06:47:53.609Z,15.2
2022-10-08T06:48:40.884Z,14.9
2022-10-08T06:49:28.268Z,16.6
2022-10-08T06:50:15.533Z,13.5
2022-10-08T06:51:02.875Z,12.7
2022-10-08T06:51:50.187Z,13.8
2022-10-08T06:52:37.459Z,18.5
2022-10-08T06:53:24.716Z,30.9
2022-10-08T06:54:12.123Z,14.6
2022-10-08T06:54:59.391Z,15.2
2022-10-08T06:55:46.658Z,18.1
2022-10-08T06:56:34.052Z,15.7
2022-10-08T06:57:21.318Z,12.3
2022-10-08T06:58:08.593Z,16.4
2022-10-08T06:58:55.979Z,15.7
2022-10-08T06:59:43.249Z,14.7
2022-10-08T07:00:30.510Z,13.4
2022-10-08T07:01:18.012Z,18.0
2022-10-08T07:02:05.449Z,16.6
2022-10-08T07:02:52.754Z,14.4
2022-10-08T07:03:40.153Z,16.3
2022-10-08T07:04:27.417Z,13.6
2022-10-08T07:05:14.682Z,10.3
2022-10-08T07:06:02.097Z,11.9
2022-10-08T07:06:49.360Z,14.0
2022-10-08T07:07:36.628Z,11.4
2022-10-08T07:08:24.049Z,11.2
2022-10-08T07:09:11.321Z,13.7
2022-10-08T07:09:58.575Z,9.4
2022-10-08T07:10:46.010Z,13.0
2022-10-08T07:11:33.276Z,10.4
2022-10-08T07:12:20.539Z,11.1
2022-10-08T07:13:07.959Z,21.2
2022-10-08T07:13:55.232Z,11.5
2022-10-08T07:14:42.516Z,11.2
2022-10-08T07:15:29.912Z,13.3
2022-10-08T07:16:20.755Z,10.5
2022-10-08T07:17:08.457Z,10.5
2022-10-08T07:17:55.900Z,9.7
2022-10-08T07:18:43.156Z,14.3
2022-10-08T07:19:30.422Z,8.7
2022-10-08T07:20:17.848Z,12.8
2022-10-08T07:21:05.112Z,13.3
2022-10-08T07:21:52.377Z,6.6
2022-10-08T07:22:39.785Z,10.6
2022-10-08T07:23:27.046Z,9.5
2022-10-08T07:24:14.307Z,9.1
2022-10-08T07:25:01.717Z,12.1
2022-10-08T07:25:48.981Z,8.6
2022-10-08T07:26:36.251Z,11.8
2022-10-08T07:27:23.670Z,8.2
2022-10-08T07:28:11.017Z,13.8
2022-10-08T07:28:58.324Z,8.2
2022-10-08T07:29:45.750Z,10.0
2022-10-08T07:30:33.047Z,13.6
2022-10-08T07:31:20.391Z,8.4
2022-10-08T07:32:07.725Z,9.5
2022-10-08T07:32:54.986Z,8.3
2022-10-08T07:33:42.255Z,7.3
2022-10-08T07:34:29.648Z,11.4
2022-10-08T07:35:16.913Z,13.4
2022-10-08T07:36:04.203Z,7.8
2022-10-08T07:36:51.576Z,10.7
2022-10-08T07:37:38.849Z,7.9
2022-10-08T07:38:26.115Z,7.9
2022-10-08T07:39:13.540Z,11.4
2022-10-08T07:40:00.806Z,7.2
2022-10-08T07:40:48.067Z,8.1
2022-10-08T07:41:35.501Z,10.4
2022-10-08T07:42:22.778Z,13.1
2022-10-08T07:43:10.027Z,7.2
2022-10-08T07:43:57.468Z,8.7
2022-10-08T07:44:44.741Z,8.0
2022-10-08T07:45:32.049Z,9.2
2022-10-08T07:46:19.430Z,8.3
2022-10-08T07:47:06.718Z,16.6
2022-10-08T07:47:53.980Z,7.1
2022-10-08T07:48:41.427Z,12.2
2022-10-08T07:49:28.689Z,8.4
2022-10-08T07:50:15.953Z,8.6
2022-10-08T07:51:03.392Z,11.3
2022-10-08T07:51:50.666Z,11.2
2022-10-08T07:52:37.931Z,12.4
2022-10-08T07:53:25.359Z,9.5
2022-10-08T07:54:12.643Z,12.1
2022-10-08T07:54:59.900Z,10.9
2022-10-08T07:55:47.344Z,11.1
2022-10-08T07:56:34.609Z,11.8
2022-10-08T07:57:21.882Z,11.2
2022-10-08T07:58:09.305Z,13.2
2022-10-08T07:58:56.574Z,10.2
2022-10-08T07:59:43.846Z,11.7
2022-10-08T08:00:31.266Z,12.2
2022-10-08T08:01:18.606Z,11.0
2022-10-08T08:02:06.040Z,11.3
2022-10-08T08:02:53.401Z,9.8
2022-10-08T08:03:40.670Z,12.0
2022-10-08T08:04:27.945Z,11.5
2022-10-08T08:05:15.368Z,10.9
2022-10-08T08:06:02.651Z,16.8
2022-10-08T08:06:49.913Z,12.2
2022-10-08T08:07:37.338Z,11.5
2022-10-08T08:08:24.615Z,10.4
2022-10-08T08:09:11.877Z,10.8
2022-10-08T08:09:59.325Z,13.3
2022-10-08T08:10:46.597Z,10.9
2022-10-08T08:11:33.873Z,10.5
2022-10-08T08:12:21.307Z,14.1
2022-10-08T08:13:08.573Z,10.1
2022-10-08T08:13:55.845Z,13.3
2022-10-08T08:14:43.253Z,13.4
2022-10-08T08:15:30.522Z,15.5
2022-10-08T08:16:17.913Z,11.0
2022-10-08T08:17:05.285Z,20.1
2022-10-08T08:17:52.545Z,15.2
2022-10-08T08:18:39.822Z,12.4
2022-10-08T08:19:27.209Z,14.1
2022-10-08T08:20:14.476Z,13.5
2022-10-08T08:21:01.768Z,24.2
2022-10-08T08:21:49.140Z,16.3
2022-10-08T08:22:36.406Z,11.1
2022-10-08T08:23:23.690Z,10.5
2022-10-08T08:24:11.071Z,18.7
2022-10-08T08:24:58.340Z,16.9
2022-10-08T08:25:45.609Z,16.9
2022-10-08T08:26:33.020Z,15.0
2022-10-08T08:27:20.297Z,13.1
2022-10-08T08:28:07.630Z,12.6
2022-10-08T08:28:54.960Z,18.5
2022-10-08T08:29:42.237Z,17.8
2022-10-08T08:30:29.516Z,18.8
2022-10-08T08:31:17.050Z,12.6
2022-10-08T08:32:04.422Z,11.1
2022-10-08T08:32:51.760Z,18.5
2022-10-08T08:33:39.156Z,14.3
2022-10-08T08:34:26.436Z,19.7
2022-10-08T08:35:13.803Z,14.3
2022-10-08T08:36:01.125Z,17.4
2022-10-08T08:36:48.392Z,13.8
2022-10-08T08:37:35.668Z,15.3
2022-10-08T08:38:23.093Z,11.5
2022-10-08T08:39:10.357Z,17.7
2022-10-08T08:39:57.687Z,14.7
2022-10-08T08:40:45.068Z,13.5
2022-10-08T08:41:32.389Z,15.2
2022-10-08T08:42:19.648Z,15.1
2022-10-08T08:43:07.071Z,20.9
2022-10-08T08:43:54.353Z,17.0
2022-10-08T08:44:41.628Z,16.9
2022-10-08T08:45:45.890Z,16.3
2022-10-08T08:46:26.302Z,14.2
2022-10-08T08:47:13.716Z,16.2
2022-10-08T08:48:00.985Z,22.3
2022-10-08T08:48:48.259Z,15.0
2022-10-08T08:49:35.690Z,15.2
2022-10-08T08:50:22.996Z,14.3
2022-10-08T08:51:10.281Z,16.8
2022-10-08T08:51:57.699Z,16.9
2022-10-08T08:52:45.304Z,18.6
2022-10-08T08:53:32.807Z,18.5
2022-10-08T08:54:20.238Z,15.8
2022-10-08T08:55:07.508Z,15.1
2022-10-08T08:55:54.786Z,14.0
2022-10-08T08:56:42.215Z,17.4
2022-10-08T08:57:29.482Z,13.0
2022-10-08T08:58:16.750Z,13.1
2022-10-08T08:59:04.164Z,16.0
2022-10-08T08:59:51.659Z,18.7
2022-10-08T09:00:38.923Z,15.7
2022-10-08T09:01:26.438Z,16.1
2022-10-08T09:02:13.741Z,16.2
2022-10-08T09:03:01.006Z,15.2
2022-10-08T09:03:48.433Z,12.4
2022-10-08T09:04:35.699Z,18.2
2022-10-08T09:05:23.017Z,12.7
2022-10-08T09:06:10.406Z,18.6
2022-10-08T09:06:57.677Z,22.7
2022-10-08T09:07:44.958Z,21.8
2022-10-08T09:08:32.382Z,17.3
2022-10-08T09:09:19.653Z,31.7
2022-10-08T09:10:06.924Z,12.8
2022-10-08T09:10:54.345Z,18.3
2022-10-08T09:11:41.624Z,43.8
2022-10-08T09:12:28.900Z,23.1
2022-10-08T09:13:16.330Z,35.4
2022-10-08T09:14:03.611Z,36.6
2022-10-08T09:14:50.880Z,28.6
2022-10-08T09:15:38.315Z,14.7
2022-10-08T09:16:25.651Z,17.3
2022-10-08T09:17:12.999Z,16.8
2022-10-08T09:18:00.434Z,10.1
2022-10-08T09:18:47.707Z,13.5
2022-10-08T09:19:34.968Z,21.4
2022-10-08T09:20:22.530Z,20.4
2022-10-08T09:21:09.843Z,28.8
2022-10-08T09:21:57.111Z,36.9
2022-10-08T09:22:44.768Z,25.9
2022-10-08T09:23:32.237Z,23.2
2022-10-08T09:24:19.513Z,36.0
2022-10-08T09:25:06.801Z,16.9
2022-10-08T09:25:54.084Z,12.5
2022-10-08T09:26:41.367Z,17.4
2022-10-08T09:27:28.644Z,21.7
2022-10-08T09:28:15.929Z,16.1
2022-10-08T09:29:03.234Z,14.2
2022-10-08T09:29:50.524Z,17.9
2022-10-08T09:30:37.837Z,12.2
2022-10-08T09:31:25.388Z,14.2
2022-10-08T09:32:12.734Z,15.0
2022-10-08T09:33:00.012Z,13.0
2022-10-08T09:33:47.294Z,14.6
2022-10-08T09:34:34.573Z,13.6
2022-10-08T09:35:21.852Z,17.7
2022-10-08T09:36:09.125Z,13.1
2022-10-08T09:36:56.416Z,18.5
2022-10-08T09:37:43.678Z,18.0
2022-10-08T09:38:30.935Z,14.1
2022-10-08T09:39:18.233Z,13.9
2022-10-08T09:40:05.500Z,15.4
2022-10-08T09:40:52.764Z,15.5
2022-10-08T09:41:40.117Z,19.8
2022-10-08T09:42:27.392Z,15.7
2022-10-08T09:43:14.662Z,15.0
2022-10-08T09:44:01.960Z,12.5
2022-10-08T09:44:49.229Z,12.3
2022-10-08T09:45:36.557Z,13.5
2022-10-08T09:46:23.998Z,12.3
2022-10-08T09:47:11.289Z,15.1
2022-10-08T09:47:58.562Z,16.4
2022-10-08T09:48:45.880Z,15.3
2022-10-08T09:49:33.143Z,12.4
2022-10-08T09:50:20.461Z,12.8
2022-10-08T09:51:07.805Z,12.7
2022-10-08T09:51:55.080Z,12.0
2022-10-08T09:52:42.351Z,13.3
2022-10-08T09:53:29.655Z,12.5
2022-10-08T09:54:16.920Z,12.9
2022-10-08T09:55:04.180Z,20.1
2022-10-08T09:55:51.497Z,12.8
2022-10-08T09:56:38.782Z,11.9
2022-10-08T09:57:26.058Z,11.2
2022-10-08T09:58:13.340Z,12.2
2022-10-08T09:59:00.622Z,18.0
2022-10-08T09:59:47.898Z,13.0
2022-10-08T10:00:35.200Z,15.1
2022-10-08T10:01:22.563Z,13.4
2022-10-08T10:02:09.901Z,13.7
2022-10-08T10:02:57.169Z,13.2
2022-10-08T10:03:44.480Z,12.7
2022-10-08T10:04:31.802Z,11.7
2022-10-08T10:05:19.086Z,12.8
2022-10-08T10:06:06.369Z,12.4
2022-10-08T10:06:53.640Z,11.1
2022-10-08T10:14:25.903Z,13.9
2022-10-08T10:21:58.177Z,10.6
2022-10-08T10:29:30.494Z,11.6
2022-10-08T10:37:02.776Z,10.2
2022-10-08T10:44:35.047Z,14.9
2022-10-08T10:48:19.545Z,10.3
2022-10-08T10:49:06.840Z,14.8
2022-10-08T10:49:54.108Z,9.8
2022-10-08T10:50:41.379Z,9.9
2022-10-08T10:51:28.670Z,9.2
2022-10-08T10:52:15.942Z,10.9
2022-10-08T10:53:03.220Z,9.7
2022-10-08T10:53:50.501Z,9.8
2022-10-08T10:54:37.786Z,10.5
2022-10-08T10:55:25.052Z,11.2
2022-10-08T10:56:12.363Z,12.7
2022-10-08T10:56:59.649Z,11.1
2022-10-08T10:57:46.912Z,19.8
2022-10-08T10:58:34.233Z,9.3
2022-10-08T10:59:21.498Z,11.9
2022-10-08T11:00:08.772Z,13.1
2022-10-08T11:00:56.065Z,10.4
2022-10-08T11:01:43.367Z,15.6
2022-10-08T11:02:30.734Z,11.5
2022-10-08T11:03:18.012Z,8.6
2022-10-08T11:04:05.282Z,17.0
2022-10-08T11:04:52.550Z,10.4
2022-10-08T11:05:39.893Z,10.9
2022-10-08T11:06:27.166Z,12.4
2022-10-08T11:07:14.439Z,9.9
2022-10-08T11:08:01.748Z,10.8
2022-10-08T11:08:49.024Z,12.3
2022-10-08T11:09:36.284Z,10.3
2022-10-08T11:10:23.605Z,9.9
2022-10-08T11:11:10.922Z,9.4
2022-10-08T11:11:58.179Z,9.8
2022-10-08T11:12:45.858Z,10.2
2022-10-08T11:13:33.517Z,9.3
2022-10-08T11:14:20.789Z,9.0
2022-10-08T11:15:08.058Z,9.8
2022-10-08T11:15:55.445Z,10.2
2022-10-08T11:16:42.768Z,8.9
2022-10-08T11:17:30.041Z,10.6
2022-10-08T11:18:17.357Z,9.8
2022-10-08T11:19:04.639Z,8.8
2022-10-08T11:19:51.990Z,13.6
2022-10-08T11:20:39.292Z,10.9
2022-10-08T11:21:26.562Z,10.3
2022-10-08T11:22:13.832Z,8.3
2022-10-08T11:23:01.149Z,7.4
2022-10-08T11:23:48.417Z,8.2
2022-10-08T11:24:35.698Z,10.3
2022-10-08T11:25:22.963Z,8.5
2022-10-08T11:26:21.996Z,9.7
2022-10-08T11:27:07.481Z,14.2
2022-10-08T11:27:54.894Z,14.7
2022-10-08T11:28:42.256Z,10.8
2022-10-08T11:29:29.553Z,9.0
2022-10-08T11:30:16.945Z,9.0
2022-10-08T11:31:04.252Z,8.5
2022-10-08T11:31:51.564Z,9.2
2022-10-08T11:32:38.989Z,8.7
2022-10-08T11:33:26.253Z,9.6
2022-10-08T11:34:13.522Z,8.9
2022-10-08T11:35:00.916Z,8.7
2022-10-08T11:35:48.190Z,9.0
2022-10-08T11:36:35.453Z,8.4
2022-10-08T11:37:22.850Z,12.2
2022-10-08T11:38:10.113Z,9.3
2022-10-08T11:38:57.376Z,15.0
2022-10-08T11:39:44.775Z,8.8
2022-10-08T11:40:32.187Z,10.1
2022-10-08T11:41:19.453Z,13.4
2022-10-08T11:42:06.871Z,10.2
2022-10-08T11:42:54.475Z,9.1
2022-10-08T11:43:42.244Z,9.4
2022-10-08T11:44:29.677Z,9.4
2022-10-08T11:45:17.001Z,10.5
2022-10-08T11:46:04.323Z,14.8
2022-10-08T11:46:51.694Z,10.4
2022-10-08T11:47:38.977Z,10.3
2022-10-08T11:48:26.248Z,10.4
2022-10-08T11:49:13.701Z,11.4
2022-10-08T11:50:00.975Z,12.4
2022-10-08T11:50:48.237Z,23.8
2022-10-08T11:51:35.660Z,10.0
2022-10-08T11:52:22.929Z,7.9
2022-10-08T11:53:10.205Z,10.3
2022-10-08T11:53:57.622Z,39.3
2022-10-08T11:54:44.913Z,10.4
2022-10-08T11:55:32.185Z,14.8
2022-10-08T11:56:19.602Z,10.6
2022-10-08T11:57:06.869Z,10.8
2022-10-08T11:58:07.564Z,9.1
2022-10-08T11:58:51.374Z,8.8
2022-10-08T11:59:38.777Z,11.2
2022-10-08T12:00:26.127Z,9.6
2022-10-08T12:01:13.384Z,8.3
2022-10-08T12:02:00.849Z,9.1
2022-10-08T12:02:48.397Z,10.6
2022-10-08T12:03:35.922Z,10.3
2022-10-08T12:04:23.281Z,9.3
2022-10-08T12:05:10.547Z,9.9
2022-10-08T12:05:57.800Z,9.2
2022-10-08T12:06:45.218Z,9.5
2022-10-08T12:07:32.482Z,10.1
2022-10-08T12:08:19.752Z,9.0
2022-10-08T12:09:07.160Z,13.4
2022-10-08T12:09:54.433Z,10.1
2022-10-08T12:10:41.702Z,12.4
2022-10-08T12:11:29.113Z,11.0
2022-10-08T12:12:16.388Z,10.5
2022-10-08T12:13:03.660Z,7.4
2022-10-08T12:13:51.061Z,8.9
2022-10-08T12:14:38.325Z,9.0
2022-10-08T12:15:25.586Z,8.9
2022-10-08T12:22:57.857Z,8.5
2022-10-08T12:30:30.124Z,8.5
2022-10-08T12:38:02.402Z,11.5
2022-10-08T12:45:34.683Z,11.5
2022-10-08T12:53:06.957Z,7.4
2022-10-08T13:00:39.271Z,10.6
2022-10-08T13:08:11.591Z,7.7
2022-10-08T13:15:43.891Z,8.7
2022-10-08T13:23:16.200Z,7.4
2022-10-08T13:30:48.477Z,8.4
2022-10-08T13:38:20.754Z,8.5
2022-10-08T13:45:53.029Z,7.9
2022-10-08T13:53:25.314Z,8.0
2022-10-08T14:00:57.669Z,9.6
2022-10-08T14:08:30.013Z,8.7
2022-10-08T14:16:02.346Z,7.8
2022-10-08T14:23:34.633Z,7.0
2022-10-08T14:31:06.928Z,6.4
2022-10-08T14:38:39.241Z,8.1
2022-10-08T14:46:11.552Z,7.3
2022-10-08T14:53:43.901Z,6.6
2022-10-08T15:01:16.170Z,6.0
2022-10-08T15:08:48.449Z,7.7
2022-10-08T15:16:20.800Z,5.8
2022-10-08T15:23:53.124Z,6.5
2022-10-08T15:31:25.492Z,5.0
2022-10-08T15:38:57.820Z,4.8
2022-10-08T15:46:30.092Z,6.9
2022-10-08T15:54:02.387Z,4.7
2022-10-08T16:01:34.777Z,6.2
2022-10-08T16:09:07.090Z,5.6
2022-10-08T16:16:39.427Z,5.1
2022-10-08T16:24:11.733Z,5.1
2022-10-08T16:31:44.002Z,6.9
2022-10-08T16:39:16.275Z,4.7
2022-10-08T16:46:48.566Z,5.2
2022-10-08T16:54:20.834Z,5.3
2022-10-08T17:01:53.199Z,5.5
2022-10-08T17:09:25.501Z,4.6
2022-10-08T17:16:57.838Z,4.9
2022-10-08T17:24:30.340Z,5.5
2022-10-08T17:32:02.616Z,5.2
2022-10-08T17:39:34.891Z,6.7
2022-10-08T17:47:07.159Z,8.6
2022-10-08T17:54:39.428Z,7.4
2022-10-08T18:02:11.769Z,5.7
2022-10-08T18:09:44.082Z,5.8
2022-10-08T18:17:16.352Z,7.0
2022-10-08T18:24:48.620Z,7.2
2022-10-08T18:32:20.894Z,8.1
2022-10-08T18:39:53.160Z,10.5
2022-10-08T18:47:25.433Z,7.9
2022-10-08T18:54:57.719Z,8.0
2022-10-08T19:02:30.032Z,11.0
2022-10-08T19:10:02.440Z,9.6
2022-10-08T19:17:34.701Z,9.5
2022-10-08T19:25:06.979Z,10.0
2022-10-08T19:32:39.256Z,14.4
2022-10-08T19:40:11.524Z,13.0
2022-10-08T19:47:43.801Z,8.5
2022-10-08T19:55:16.091Z,11.9
2022-10-08T20:02:48.540Z,9.7
2022-10-08T20:10:21.008Z,9.6
2022-10-08T20:17:53.285Z,10.5
2022-10-08T20:25:25.549Z,9.2
2022-10-08T20:32:57.818Z,9.4
2022-10-08T20:40:30.103Z,10.1
2022-10-08T20:48:02.376Z,11.7
2022-10-08T20:55:34.637Z,9.6
2022-10-08T21:03:06.897Z,9.6
2022-10-08T21:10:39.176Z,9.6
2022-10-08T21:18:11.448Z,9.8
2022-10-08T21:25:43.717Z,13.1
2022-10-08T21:33:15.991Z,7.6
2022-10-08T21:40:48.252Z,12.5
2022-10-08T21:48:20.533Z,7.2
2022-10-08T21:55:52.821Z,9.8
2022-10-08T22:03:25.102Z,8.7
2022-10-08T22:10:57.376Z,8.8
2022-10-08T22:18:29.654Z,8.2
2022-10-08T22:26:01.917Z,8.6
2022-10-08T22:33:34.190Z,5.9
2022-10-08T22:41:06.453Z,6.8
2022-10-08T22:48:38.730Z,7.1
2022-10-08T22:56:11.015Z,7.2
2022-10-08T23:03:43.392Z,6.8
2022-10-08T23:11:15.689Z,7.7
2022-10-08T23:18:47.956Z,6.9
2022-10-08T23:26:20.221Z,6.1
2022-10-08T23:33:52.527Z,6.8
2022-10-08T23:41:24.786Z,5.6
2022-10-08T23:48:57.049Z,5.2
2022-10-08T23:56:29.316Z,6.1
